createdAt,value
2023-03-05T00:01:24.912Z,2.00
2023-03-05T00:03:53.622Z,2.00
2023-03-05T00:06:21.841Z,1.90
2023-03-05T00:08:49.473Z,2.00
2023-03-05T00:11:16.812Z,2.00
2023-03-05T00:13:44.566Z,2.00
2023-03-05T00:16:15.355Z,2.10
2023-03-05T00:18:42.899Z,2.10
2023-03-05T00:21:38.061Z,2.10
2023-03-05T00:24:08.866Z,2.10
2023-03-05T00:26:39.080Z,2.10
2023-03-05T00:29:07.900Z,2.00
2023-03-05T00:31:36.844Z,2.00
2023-03-05T00:34:07.173Z,2.00
2023-03-05T00:36:34.845Z,2.00
2023-03-05T00:39:01.922Z,2.00
2023-03-05T00:41:28.963Z,2.00
2023-03-05T00:43:56.247Z,1.90
2023-03-05T00:46:24.384Z,1.80
2023-03-05T00:48:51.442Z,1.80
2023-03-05T00:51:18.766Z,1.90
2023-03-05T00:53:46.027Z,1.90
2023-03-05T00:56:13.350Z,1.90
2023-03-05T00:58:40.618Z,2.00
2023-03-05T01:01:08.010Z,2.00
2023-03-05T01:03:35.834Z,2.00
2023-03-05T01:06:07.258Z,1.90
2023-03-05T01:08:35.267Z,2.00
2023-03-05T01:11:03.194Z,1.90
2023-03-05T01:13:30.391Z,1.90
2023-03-05T01:15:57.563Z,1.80
2023-03-05T01:18:24.642Z,1.80
2023-03-05T01:20:51.926Z,1.80
2023-03-05T01:23:19.657Z,1.70
2023-03-05T01:25:56.740Z,1.70
2023-03-05T01:28:23.764Z,1.70
2023-03-05T01:30:50.886Z,1.70
2023-03-05T01:33:18.353Z,1.70
2023-03-05T01:35:49.420Z,1.70
2023-03-05T01:38:17.198Z,1.80
2023-03-05T01:40:45.058Z,1.80
2023-03-05T01:43:12.126Z,1.70
2023-03-05T01:46:00.177Z,1.80
2023-03-05T01:48:27.748Z,1.70
2023-03-05T01:50:54.982Z,1.70
2023-03-05T01:53:21.955Z,1.70
2023-03-05T01:55:49.265Z,1.60
2023-03-05T01:58:17.356Z,1.60
2023-03-05T02:00:47.862Z,1.60
2023-03-05T02:03:15.348Z,1.70
2023-03-05T02:05:44.534Z,1.60
2023-03-05T02:08:18.719Z,1.60
2023-03-05T02:10:48.976Z,1.60
2023-03-05T02:13:21.449Z,1.60
2023-03-05T02:15:49.983Z,1.50
2023-03-05T02:18:18.379Z,1.50
2023-03-05T02:20:47.546Z,1.60
2023-03-05T02:23:15.883Z,1.50
2023-03-05T02:25:42.987Z,1.60
2023-03-05T02:28:23.009Z,1.60
2023-03-05T02:30:50.394Z,1.60
2023-03-05T02:33:18.795Z,1.60
2023-03-05T02:35:46.582Z,1.50
2023-03-05T02:38:16.130Z,1.50
2023-03-05T02:40:43.497Z,1.50
2023-03-05T02:43:11.869Z,1.50
2023-03-05T02:45:39.410Z,1.30
2023-03-05T02:48:06.860Z,1.30
2023-03-05T02:50:34.841Z,1.30
2023-03-05T02:53:01.898Z,1.30
2023-03-05T02:55:29.847Z,1.30
2023-03-05T02:57:57.109Z,1.20
2023-03-05T03:00:26.507Z,1.20
2023-03-05T03:02:53.648Z,1.30
2023-03-05T03:05:22.104Z,1.20
2023-03-05T03:07:50.422Z,1.20
2023-03-05T03:10:17.597Z,1.10
2023-03-05T03:12:46.066Z,1.00
2023-03-05T03:15:16.694Z,1.00
2023-03-05T03:17:43.797Z,1.00
2023-03-05T03:20:15.052Z,1.00
2023-03-05T03:22:44.240Z,1.00
2023-03-05T03:25:16.273Z,1.00
2023-03-05T03:27:43.376Z,1.00
2023-03-05T03:30:11.611Z,0.90
2023-03-05T03:32:38.937Z,1.00
2023-03-05T03:35:06.875Z,1.00
2023-03-05T03:37:34.300Z,1.00
2023-03-05T03:40:01.310Z,1.00
2023-03-05T03:42:28.453Z,1.00
2023-03-05T03:44:55.548Z,0.90
2023-03-05T03:47:22.493Z,0.90
2023-03-05T03:49:53.582Z,0.90
2023-03-05T03:52:21.608Z,0.80
2023-03-05T03:54:49.530Z,0.90
2023-03-05T03:57:16.662Z,0.80
2023-03-05T03:59:45.552Z,0.80
2023-03-05T04:02:13.168Z,0.70
2023-03-05T04:04:40.418Z,0.70
2023-03-05T04:07:07.656Z,0.70
2023-03-05T04:09:34.645Z,0.70
2023-03-05T04:12:01.631Z,0.70
2023-03-05T04:14:28.870Z,0.70
2023-03-05T04:16:55.921Z,0.70
2023-03-05T04:19:22.989Z,0.60
2023-03-05T04:21:50.042Z,0.70
2023-03-05T04:24:17.369Z,0.70
2023-03-05T04:26:44.576Z,0.60
2023-03-05T04:29:11.664Z,0.60
2023-03-05T04:31:38.693Z,0.70
2023-03-05T04:34:06.073Z,0.60
2023-03-05T04:36:33.085Z,0.70
2023-03-05T04:39:00.365Z,0.60
2023-03-05T04:41:27.383Z,0.60
2023-03-05T04:43:54.506Z,0.70
2023-03-05T04:46:21.681Z,0.60
2023-03-05T04:48:48.876Z,0.60
2023-03-05T04:51:16.012Z,0.60
2023-03-05T04:53:43.085Z,0.60
2023-03-05T04:56:10.267Z,0.60
2023-03-05T04:58:37.362Z,0.60
2023-03-05T05:01:05.691Z,0.50
2023-03-05T05:03:33.163Z,0.50
2023-03-05T05:06:01.062Z,0.50
2023-03-05T05:08:28.681Z,0.50
2023-03-05T05:11:07.785Z,0.50
2023-03-05T05:13:35.417Z,0.50
2023-03-05T05:16:02.572Z,0.50
2023-03-05T05:18:29.770Z,0.50
2023-03-05T05:20:56.966Z,0.50
2023-03-05T05:23:24.018Z,0.50
2023-03-05T05:26:02.075Z,0.50
2023-03-05T05:28:29.322Z,0.50
2023-03-05T05:30:57.230Z,0.50
2023-03-05T05:33:24.560Z,0.50
2023-03-05T05:35:51.780Z,0.40
2023-03-05T05:38:19.538Z,0.40
2023-03-05T05:40:47.696Z,0.40
2023-03-05T05:43:14.769Z,0.40
2023-03-05T05:45:41.905Z,0.40
2023-03-05T05:48:09.033Z,0.40
2023-03-05T05:50:37.509Z,0.50
2023-03-05T05:53:04.624Z,0.50
2023-03-05T05:55:31.706Z,0.50
2023-03-05T05:57:58.801Z,0.50
2023-03-05T06:00:25.862Z,0.40
2023-03-05T06:02:53.047Z,0.40
2023-03-05T06:05:20.389Z,0.40
2023-03-05T06:07:47.516Z,0.40
2023-03-05T06:10:14.856Z,0.40
2023-03-05T06:12:41.853Z,0.40
2023-03-05T06:15:09.609Z,0.50
2023-03-05T06:17:36.616Z,0.50
2023-03-05T06:20:04.966Z,0.50
2023-03-05T06:22:32.422Z,0.50
2023-03-05T06:24:59.492Z,0.50
2023-03-05T06:27:26.719Z,0.50
2023-03-05T06:29:54.692Z,0.50
2023-03-05T06:32:21.683Z,0.50
2023-03-05T06:34:49.490Z,0.60
2023-03-05T06:37:16.602Z,0.50
2023-03-05T06:39:43.707Z,0.40
2023-03-05T06:42:10.931Z,0.30
2023-03-05T06:44:41.526Z,0.30
2023-03-05T06:47:12.589Z,0.40
2023-03-05T06:49:39.770Z,0.40
2023-03-05T06:52:10.116Z,0.40
2023-03-05T06:54:37.183Z,0.30
2023-03-05T06:57:04.460Z,0.30
2023-03-05T06:59:31.540Z,0.40
2023-03-05T07:01:58.506Z,0.40
2023-03-05T07:04:25.503Z,0.40
2023-03-05T07:06:52.637Z,0.50
2023-03-05T07:09:20.100Z,0.50
2023-03-05T07:11:47.455Z,0.60
2023-03-05T07:14:14.575Z,0.50
2023-03-05T07:16:41.758Z,0.50
2023-03-05T07:19:10.972Z,0.60
2023-03-05T07:21:39.847Z,0.60
2023-03-05T07:24:08.551Z,0.60
2023-03-05T07:26:36.389Z,0.70
2023-03-05T07:29:03.680Z,0.80
2023-03-05T07:31:32.064Z,0.80
2023-03-05T07:34:01.768Z,0.90
2023-03-05T07:36:30.017Z,0.80
2023-03-05T07:38:57.112Z,0.70
2023-03-05T07:41:24.370Z,0.80
2023-03-05T07:43:54.102Z,0.80
2023-03-05T07:46:24.148Z,0.70
2023-03-05T07:48:51.452Z,0.80
2023-03-05T07:51:20.265Z,0.80
2023-03-05T07:53:50.702Z,0.90
2023-03-05T07:56:26.781Z,0.90
2023-03-05T07:58:53.753Z,1.00
2023-03-05T08:01:20.851Z,1.10
2023-03-05T08:03:48.033Z,1.10
2023-03-05T08:06:15.482Z,1.10
2023-03-05T08:08:42.547Z,1.00
2023-03-05T08:11:13.393Z,1.20
2023-03-05T08:13:40.608Z,1.20
2023-03-05T08:16:10.063Z,1.20
2023-03-05T08:18:37.293Z,1.20
2023-03-05T08:21:05.036Z,1.30
2023-03-05T08:23:32.189Z,1.40
2023-03-05T08:25:59.271Z,1.50
2023-03-05T08:28:26.426Z,1.60
2023-03-05T08:30:53.533Z,1.70
2023-03-05T08:33:20.664Z,1.70
2023-03-05T08:35:47.719Z,1.60
2023-03-05T08:38:14.755Z,1.70
2023-03-05T08:40:43.380Z,1.90
2023-03-05T08:43:10.615Z,1.90
2023-03-05T08:45:39.963Z,2.00
2023-03-05T08:48:07.351Z,2.00
2023-03-05T08:50:38.887Z,2.00
2023-03-05T08:53:06.502Z,2.10
2023-03-05T08:55:33.580Z,2.10
2023-03-05T08:58:00.780Z,2.00
2023-03-05T09:00:27.768Z,2.10
2023-03-05T09:02:55.027Z,2.10
2023-03-05T09:05:22.689Z,2.20
2023-03-05T09:07:49.656Z,2.30
2023-03-05T09:10:18.397Z,2.40
2023-03-05T09:12:45.558Z,2.50
2023-03-05T09:15:12.764Z,2.60
2023-03-05T09:17:42.037Z,2.70
2023-03-05T09:20:12.919Z,2.80
2023-03-05T09:22:40.746Z,2.90
2023-03-05T09:25:09.550Z,2.70
2023-03-05T09:27:37.587Z,2.70
2023-03-05T09:30:06.028Z,2.60
2023-03-05T09:32:33.677Z,2.70
2023-03-05T09:35:00.822Z,2.70
2023-03-05T09:37:29.457Z,2.70
2023-03-05T09:39:57.473Z,2.90
2023-03-05T09:42:48.679Z,2.90
2023-03-05T09:45:29.096Z,2.90
2023-03-05T09:48:21.573Z,2.70
2023-03-05T09:51:01.407Z,2.90
2023-03-05T09:53:51.726Z,3.00
2023-03-05T09:56:26.681Z,3.00
2023-03-05T09:59:01.320Z,3.10
2023-03-05T10:01:42.454Z,3.20
2023-03-05T10:04:21.292Z,3.30
2023-03-05T10:07:00.125Z,3.40
2023-03-05T10:09:39.158Z,3.40
2023-03-05T10:12:35.410Z,3.40
2023-03-05T10:15:03.442Z,3.50
2023-03-05T10:17:51.355Z,3.50
2023-03-05T10:20:35.832Z,3.60
2023-03-05T10:23:09.268Z,3.60
2023-03-05T10:26:00.795Z,3.50
2023-03-05T10:28:39.855Z,3.50
2023-03-05T10:31:44.401Z,3.50
2023-03-05T10:34:36.730Z,3.60
2023-03-05T10:37:15.907Z,3.60
2023-03-05T10:39:53.937Z,3.60
2023-03-05T10:42:42.722Z,3.70
2023-03-05T10:45:14.494Z,3.70
2023-03-05T10:48:29.125Z,3.80
2023-03-05T10:51:04.440Z,3.70
2023-03-05T10:53:34.439Z,3.60
2023-03-05T10:56:04.051Z,3.50
2023-03-05T10:58:31.703Z,3.40
2023-03-05T11:01:10.670Z,3.40
2023-03-05T11:04:04.819Z,3.30
2023-03-05T11:06:31.771Z,3.30
2023-03-05T11:09:24.515Z,3.10
2023-03-05T11:12:19.564Z,3.00
2023-03-05T11:15:03.578Z,2.60
2023-03-05T11:17:34.960Z,2.40
2023-03-05T11:20:28.375Z,2.40
2023-03-05T11:23:13.231Z,2.30
2023-03-05T11:25:55.389Z,2.30
2023-03-05T11:28:33.433Z,2.30
2023-03-05T11:31:24.517Z,2.30
2023-03-05T11:34:00.867Z,2.30
2023-03-05T11:36:36.866Z,2.30
2023-03-05T11:39:07.727Z,2.30
2023-03-05T11:41:52.863Z,2.30
2023-03-05T11:44:30.791Z,2.10
2023-03-05T11:47:00.829Z,2.10
2023-03-05T11:49:30.189Z,2.10
2023-03-05T11:52:23.306Z,2.00
2023-03-05T11:55:02.266Z,1.90
2023-03-05T11:57:39.365Z,2.00
2023-03-05T12:00:12.396Z,2.00
2023-03-05T12:02:40.094Z,2.00
2023-03-05T12:05:08.487Z,1.90
2023-03-05T12:07:43.247Z,1.90
2023-03-05T12:10:22.301Z,1.90
2023-03-05T12:12:56.439Z,1.90
2023-03-05T12:15:29.234Z,1.90
2023-03-05T12:18:05.270Z,1.80
2023-03-05T12:20:57.910Z,1.80
2023-03-05T12:23:28.056Z,1.80
2023-03-05T12:25:59.434Z,1.80
2023-03-05T12:28:29.513Z,1.80
2023-03-05T12:30:59.596Z,1.80
2023-03-05T12:33:33.235Z,1.80
2023-03-05T12:36:22.348Z,1.70
2023-03-05T12:38:57.162Z,1.80
2023-03-05T12:41:25.390Z,1.80
2023-03-05T12:44:05.678Z,1.90
2023-03-05T12:46:46.370Z,2.00
2023-03-05T12:49:19.250Z,2.10
2023-03-05T12:51:53.232Z,2.20
2023-03-05T12:54:39.757Z,2.30
2023-03-05T12:57:17.604Z,2.30
2023-03-05T13:00:11.351Z,2.30
2023-03-05T13:02:42.680Z,2.30
2023-03-05T13:05:34.169Z,2.10
2023-03-05T13:08:19.563Z,2.20
2023-03-05T13:10:52.610Z,2.20
2023-03-05T13:13:21.518Z,2.30
2023-03-05T13:15:50.491Z,2.30
2023-03-05T13:18:24.140Z,2.30
2023-03-05T13:21:24.986Z,2.30
2023-03-05T13:24:00.618Z,2.20
2023-03-05T13:26:29.836Z,2.20
2023-03-05T13:29:06.599Z,2.00
2023-03-05T13:31:36.767Z,2.00
2023-03-05T13:34:34.767Z,2.20
2023-03-05T13:37:23.954Z,2.10
2023-03-05T13:40:07.400Z,2.10
2023-03-05T13:42:36.813Z,2.20
2023-03-05T13:45:06.869Z,2.20
2023-03-05T13:47:37.165Z,2.30
2023-03-05T13:50:08.376Z,2.40
2023-03-05T13:52:37.631Z,2.50
2023-03-05T13:55:16.890Z,2.40
2023-03-05T13:57:53.158Z,2.40
2023-03-05T14:00:39.094Z,2.40
2023-03-05T14:03:19.727Z,2.50
2023-03-05T14:05:47.700Z,2.80
2023-03-05T14:08:22.777Z,3.00
2023-03-05T14:10:50.546Z,3.00
2023-03-05T14:13:27.842Z,2.90
2023-03-05T14:16:11.811Z,3.10
2023-03-05T14:18:39.455Z,3.10
2023-03-05T14:21:11.472Z,3.00
2023-03-05T14:23:47.733Z,3.10
2023-03-05T14:26:34.244Z,3.10
2023-03-05T14:29:17.689Z,3.00
2023-03-05T14:32:02.891Z,3.00
2023-03-05T14:34:34.012Z,3.00
2023-03-05T14:37:07.772Z,2.90
2023-03-05T14:39:54.776Z,2.90
2023-03-05T14:42:35.520Z,2.90
2023-03-05T14:45:15.113Z,2.80
2023-03-05T14:47:42.239Z,2.70
2023-03-05T14:50:22.030Z,2.70
2023-03-05T14:52:51.598Z,2.70
2023-03-05T14:55:24.625Z,2.70
2023-03-05T14:57:55.646Z,2.70
2023-03-05T15:00:25.931Z,2.70
2023-03-05T15:02:53.171Z,2.80
2023-03-05T15:05:20.593Z,2.80
2023-03-05T15:07:50.330Z,2.80
2023-03-05T15:10:24.235Z,2.70
2023-03-05T15:12:53.273Z,2.80
2023-03-05T15:15:21.526Z,2.70
2023-03-05T15:17:52.235Z,2.70
2023-03-05T15:20:27.732Z,2.60
2023-03-05T15:22:55.182Z,2.70
2023-03-05T15:25:24.216Z,2.70
2023-03-05T15:27:51.258Z,2.70
2023-03-05T15:30:31.763Z,2.70
2023-03-05T15:33:04.074Z,2.60
2023-03-05T15:35:31.336Z,2.70
2023-03-05T15:37:58.700Z,2.70
2023-03-05T15:40:28.100Z,2.60
2023-03-05T15:42:56.862Z,2.60
2023-03-05T15:45:24.247Z,2.60
2023-03-05T15:47:52.804Z,2.60
2023-03-05T15:50:21.450Z,2.60
2023-03-05T15:52:49.216Z,2.60
2023-03-05T15:55:18.387Z,2.70
2023-03-05T15:57:48.709Z,2.70
2023-03-05T16:00:19.954Z,2.60
2023-03-05T16:02:47.547Z,2.70
2023-03-05T16:05:14.654Z,2.60
2023-03-05T16:07:45.668Z,2.60
2023-03-05T16:10:17.706Z,2.60
2023-03-05T16:12:46.338Z,2.60
2023-03-05T16:15:17.250Z,2.60
2023-03-05T16:17:47.524Z,2.50
2023-03-05T16:20:16.226Z,2.50
2023-03-05T16:22:43.550Z,2.60
2023-03-05T16:25:10.665Z,2.50
2023-03-05T16:27:37.745Z,2.50
2023-03-05T16:30:06.076Z,2.60
2023-03-05T16:32:33.348Z,2.60
2023-03-05T16:35:00.529Z,2.50
2023-03-05T16:37:27.781Z,2.50
2023-03-05T16:39:59.406Z,2.50
2023-03-05T16:42:26.776Z,2.40
2023-03-05T16:44:54.286Z,2.40
2023-03-05T16:47:21.334Z,2.40
2023-03-05T16:49:48.442Z,2.40
2023-03-05T16:52:19.073Z,2.40
2023-03-05T16:54:47.283Z,2.40
2023-03-05T16:57:14.996Z,2.30
2023-03-05T16:59:43.686Z,2.30
2023-03-05T17:02:13.320Z,2.30
2023-03-05T17:04:40.564Z,2.30
2023-03-05T17:07:07.869Z,2.30
2023-03-05T17:09:35.481Z,2.20
2023-03-05T17:12:02.836Z,2.20
2023-03-05T17:14:29.825Z,2.20
2023-03-05T17:16:56.847Z,2.20
2023-03-05T17:19:24.073Z,2.20
2023-03-05T17:21:52.430Z,2.20
2023-03-05T17:24:22.300Z,2.20
2023-03-05T17:26:50.345Z,2.20
2023-03-05T17:29:19.111Z,2.20
2023-03-05T17:31:47.011Z,2.20
2023-03-05T17:34:14.610Z,2.20
2023-03-05T17:36:41.709Z,2.20
2023-03-05T17:39:08.911Z,2.20
2023-03-05T17:41:36.027Z,2.20
2023-03-05T17:44:03.679Z,2.30
2023-03-05T17:46:30.871Z,2.30
2023-03-05T17:48:57.995Z,2.20
2023-03-05T17:51:24.992Z,2.10
2023-03-05T17:53:52.066Z,2.10
2023-03-05T17:56:22.119Z,2.10
2023-03-05T17:58:50.144Z,2.10
2023-03-05T18:01:29.439Z,2.00
2023-03-05T18:03:56.911Z,2.00
2023-03-05T18:06:24.847Z,2.00
2023-03-05T18:08:51.985Z,1.90
2023-03-05T18:11:19.506Z,1.90
2023-03-05T18:13:46.649Z,1.90
2023-03-05T18:16:17.115Z,1.90
2023-03-05T18:18:45.099Z,1.80
2023-03-05T18:21:12.237Z,1.80
2023-03-05T18:23:39.232Z,1.80
2023-03-05T18:26:06.251Z,1.70
2023-03-05T18:28:33.384Z,1.60
2023-03-05T18:31:01.527Z,1.60
2023-03-05T18:33:28.711Z,1.50
2023-03-05T18:35:57.290Z,1.50
2023-03-05T18:38:26.298Z,1.40
2023-03-05T18:40:55.370Z,1.40
2023-03-05T18:43:24.309Z,1.40
2023-03-05T18:45:54.825Z,1.30
2023-03-05T18:48:22.994Z,1.30
2023-03-05T18:50:51.970Z,1.30
2023-03-05T18:53:20.177Z,1.20
2023-03-05T18:55:47.655Z,1.20
2023-03-05T18:58:15.929Z,1.20
2023-03-05T19:00:45.079Z,1.20
2023-03-05T19:03:12.385Z,1.20
2023-03-05T19:05:40.622Z,1.20
2023-03-05T19:08:08.535Z,1.20
2023-03-05T19:10:35.811Z,1.20
2023-03-05T19:13:28.777Z,1.10
2023-03-05T19:15:56.053Z,1.10
2023-03-05T19:18:23.721Z,1.10
2023-03-05T19:20:56.590Z,1.10
2023-03-05T19:23:23.662Z,1.10
2023-03-05T19:25:50.707Z,1.10
2023-03-05T19:28:17.705Z,1.00
2023-03-05T19:30:47.554Z,1.00
2023-03-05T19:33:14.592Z,1.10
2023-03-05T19:35:42.237Z,1.10
2023-03-05T19:38:09.232Z,1.10
2023-03-05T19:40:36.298Z,1.00
2023-03-05T19:43:03.368Z,1.00
2023-03-05T19:45:33.290Z,1.10
2023-03-05T19:48:01.013Z,1.00
2023-03-05T19:50:28.159Z,1.10
2023-03-05T19:52:55.153Z,1.10
2023-03-05T19:55:22.187Z,1.10
2023-03-05T19:57:49.478Z,1.10
2023-03-05T20:00:17.322Z,1.10
2023-03-05T20:02:48.929Z,1.10
2023-03-05T20:05:16.498Z,1.10
2023-03-05T20:07:43.464Z,1.10
2023-03-05T20:10:11.257Z,1.00
2023-03-05T20:12:39.514Z,1.00
2023-03-05T20:15:07.383Z,1.00
2023-03-05T20:17:34.512Z,1.00
2023-03-05T20:20:01.599Z,1.00
2023-03-05T20:22:28.563Z,1.00
2023-03-05T20:24:55.579Z,0.90
2023-03-05T20:27:22.654Z,0.90
2023-03-05T20:29:49.922Z,0.80
2023-03-05T20:32:16.935Z,0.80
2023-03-05T20:34:44.077Z,0.80
2023-03-05T20:37:11.161Z,0.80
2023-03-05T20:39:38.148Z,0.80
2023-03-05T20:42:05.143Z,0.80
2023-03-05T20:44:32.255Z,0.70
2023-03-05T20:47:13.651Z,0.70
2023-03-05T20:49:40.717Z,0.80
2023-03-05T20:52:07.686Z,0.70
2023-03-05T20:54:35.199Z,0.70
2023-03-05T20:57:02.971Z,0.70
2023-03-05T20:59:30.016Z,0.70
2023-03-05T21:01:57.088Z,0.70
2023-03-05T21:04:24.047Z,0.70
2023-03-05T21:06:54.547Z,0.70
2023-03-05T21:09:22.003Z,0.70
2023-03-05T21:11:48.966Z,0.60
2023-03-05T21:14:16.059Z,0.60
2023-03-05T21:16:43.243Z,0.60
2023-03-05T21:19:10.314Z,0.60
2023-03-05T21:21:39.060Z,0.60
2023-03-05T21:24:06.569Z,0.60
2023-03-05T21:26:33.856Z,0.60
2023-03-05T21:29:00.855Z,0.70
2023-03-05T21:31:27.962Z,0.70
2023-03-05T21:33:54.942Z,0.70
2023-03-05T21:36:22.187Z,0.70
2023-03-05T21:38:49.684Z,0.70
2023-03-05T21:41:18.355Z,0.70
2023-03-05T21:43:45.412Z,0.70
2023-03-05T21:46:12.854Z,0.70
2023-03-05T21:48:40.083Z,0.70
2023-03-05T21:51:08.667Z,0.70
2023-03-05T21:53:36.176Z,0.60
2023-03-05T21:56:19.106Z,0.50
2023-03-05T21:58:47.153Z,0.40
2023-03-05T22:01:16.308Z,0.40
2023-03-05T22:03:43.451Z,0.40
2023-03-05T22:06:12.224Z,0.40
2023-03-05T22:08:39.356Z,0.30
2023-03-05T22:11:10.549Z,0.30
2023-03-05T22:13:38.614Z,0.30
2023-03-05T22:16:06.201Z,0.40
2023-03-05T22:18:33.941Z,0.40
2023-03-05T22:21:01.752Z,0.40
2023-03-05T22:23:31.737Z,0.40
2023-03-05T22:26:07.251Z,0.40
2023-03-05T22:28:35.682Z,0.40
2023-03-05T22:31:02.962Z,0.40
2023-03-05T22:33:30.613Z,0.40
2023-03-05T22:35:58.527Z,0.50
2023-03-05T22:38:25.716Z,0.50
2023-03-05T22:40:53.178Z,0.50
2023-03-05T22:43:21.140Z,0.50
2023-03-05T22:45:48.367Z,0.30
2023-03-05T22:48:15.583Z,0.30
2023-03-05T22:50:46.708Z,0.40
2023-03-05T22:53:13.863Z,0.40
2023-03-05T22:55:42.357Z,0.50
2023-03-05T22:58:12.320Z,0.40
2023-03-05T23:00:40.646Z,0.40
2023-03-05T23:03:07.850Z,0.30
2023-03-05T23:05:35.436Z,0.30
2023-03-05T23:08:02.372Z,0.30
2023-03-05T23:10:29.608Z,0.30
2023-03-05T23:12:58.973Z,0.30
2023-03-05T23:15:31.857Z,0.40
2023-03-05T23:17:59.936Z,0.30
2023-03-05T23:20:33.060Z,0.30
2023-03-05T23:23:01.155Z,0.30
2023-03-05T23:25:31.107Z,0.30
2023-03-05T23:27:58.641Z,0.30
2023-03-05T23:30:34.705Z,0.20
2023-03-05T23:33:17.213Z,0.20
2023-03-05T23:35:53.982Z,0.20
2023-03-05T23:38:21.852Z,0.20
2023-03-05T23:40:51.428Z,0.30
2023-03-05T23:43:19.515Z,0.40
2023-03-05T23:45:48.855Z,0.40
2023-03-05T23:48:17.272Z,0.30
2023-03-05T23:50:47.872Z,0.30
2023-03-05T23:53:26.525Z,0.30
2023-03-05T23:55:54.397Z,0.30
2023-03-05T23:58:22.189Z,0.30
